sensor_id;sensor_type;location;lat;lon;timestamp;P1;durP1;ratioP1;P2;durP2;ratioP2
17171;SDS011;8701;50.150;8.756;2023-02-01T00:02:44;4.10;;;3.37;;
17171;SDS011;8701;50.150;8.756;2023-02-01T00:06:48;3.27;;;2.97;;
17171;SDS011;8701;50.150;8.756;2023-02-01T00:10:57;2.77;;;2.57;;
17171;SDS011;8701;50.150;8.756;2023-02-01T00:15:00;3.50;;;3.03;;
17171;SDS011;8701;50.150;8.756;2023-02-01T00:19:03;3.10;;;2.80;;
17171;SDS011;8701;50.150;8.756;2023-02-01T00:23:08;3.27;;;2.97;;
17171;SDS011;8701;50.150;8.756;2023-02-01T00:27:12;2.73;;;2.53;;
17171;SDS011;8701;50.150;8.756;2023-02-01T00:31:18;5.67;;;3.07;;
17171;SDS011;8701;50.150;8.756;2023-02-01T00:35:20;3.13;;;2.83;;
17171;SDS011;8701;50.150;8.756;2023-02-01T00:39:23;3.33;;;3.03;;
17171;SDS011;8701;50.150;8.756;2023-02-01T00:43:26;5.50;;;3.87;;
17171;SDS011;8701;50.150;8.756;2023-02-01T00:47:28;3.13;;;2.93;;
17171;SDS011;8701;50.150;8.756;2023-02-01T00:51:31;3.07;;;2.87;;
17171;SDS011;8701;50.150;8.756;2023-02-01T00:55:35;5.30;;;3.50;;
17171;SDS011;8701;50.150;8.756;2023-02-01T00:59:39;3.90;;;3.23;;
17171;SDS011;8701;50.150;8.756;2023-02-01T01:03:42;2.80;;;2.60;;
17171;SDS011;8701;50.150;8.756;2023-02-01T01:07:46;4.63;;;2.97;;
17171;SDS011;8701;50.150;8.756;2023-02-01T01:11:49;3.10;;;2.90;;
17171;SDS011;8701;50.150;8.756;2023-02-01T01:15:54;3.03;;;2.80;;
17171;SDS011;8701;50.150;8.756;2023-02-01T01:19:56;2.77;;;2.57;;
17171;SDS011;8701;50.150;8.756;2023-02-01T01:23:58;3.60;;;3.30;;
17171;SDS011;8701;50.150;8.756;2023-02-01T01:28:02;5.20;;;3.10;;
17171;SDS011;8701;50.150;8.756;2023-02-01T01:32:04;3.90;;;3.10;;
17171;SDS011;8701;50.150;8.756;2023-02-01T01:36:07;3.97;;;3.50;;
17171;SDS011;8701;50.150;8.756;2023-02-01T01:40:12;4.77;;;3.70;;
17171;SDS011;8701;50.150;8.756;2023-02-01T01:49:04;4.00;;;3.63;;
17171;SDS011;8701;50.150;8.756;2023-02-01T01:53:12;5.97;;;3.90;;
17171;SDS011;8701;50.150;8.756;2023-02-01T01:57:19;5.03;;;4.00;;
17171;SDS011;8701;50.150;8.756;2023-02-01T02:01:25;4.67;;;4.00;;
17171;SDS011;8701;50.150;8.756;2023-02-01T02:05:29;9.33;;;4.30;;
17171;SDS011;8701;50.150;8.756;2023-02-01T02:09:32;6.03;;;4.10;;
17171;SDS011;8701;50.150;8.756;2023-02-01T02:13:35;5.13;;;4.07;;
17171;SDS011;8701;50.150;8.756;2023-02-01T02:17:41;7.60;;;4.43;;
17171;SDS011;8701;50.150;8.756;2023-02-01T02:21:55;4.93;;;4.23;;
17171;SDS011;8701;50.150;8.756;2023-02-01T02:26:26;5.87;;;4.23;;
17171;SDS011;8701;50.150;8.756;2023-02-01T02:30:44;5.30;;;4.30;;
17171;SDS011;8701;50.150;8.756;2023-02-01T02:35:03;6.90;;;4.47;;
17171;SDS011;8701;50.150;8.756;2023-02-01T02:39:18;5.40;;;4.30;;
17171;SDS011;8701;50.150;8.756;2023-02-01T02:43:26;5.23;;;4.60;;
17171;SDS011;8701;50.150;8.756;2023-02-01T02:47:55;6.43;;;4.90;;
17171;SDS011;8701;50.150;8.756;2023-02-01T02:52:13;6.60;;;4.57;;
17171;SDS011;8701;50.150;8.756;2023-02-01T02:56:38;7.30;;;4.80;;
17171;SDS011;8701;50.150;8.756;2023-02-01T03:00:59;10.23;;;5.10;;
17171;SDS011;8701;50.150;8.756;2023-02-01T03:05:20;7.57;;;5.03;;
17171;SDS011;8701;50.150;8.756;2023-02-01T03:09:26;8.30;;;4.97;;
17171;SDS011;8701;50.150;8.756;2023-02-01T03:13:36;5.77;;;5.17;;
17171;SDS011;8701;50.150;8.756;2023-02-01T03:17:43;6.10;;;4.60;;
17171;SDS011;8701;50.150;8.756;2023-02-01T03:21:49;8.17;;;5.50;;
17171;SDS011;8701;50.150;8.756;2023-02-01T03:25:56;9.03;;;5.70;;
17171;SDS011;8701;50.150;8.756;2023-02-01T03:30:02;5.87;;;5.20;;
17171;SDS011;8701;50.150;8.756;2023-02-01T03:34:09;5.80;;;4.80;;
17171;SDS011;8701;50.150;8.756;2023-02-01T03:38:19;7.40;;;5.10;;
17171;SDS011;8701;50.150;8.756;2023-02-01T03:42:26;6.80;;;4.63;;
17171;SDS011;8701;50.150;8.756;2023-02-01T03:46:32;5.97;;;4.10;;
17171;SDS011;8701;50.150;8.756;2023-02-01T03:50:38;4.07;;;3.67;;
17171;SDS011;8701;50.150;8.756;2023-02-01T03:54:47;7.17;;;3.80;;
17171;SDS011;8701;50.150;8.756;2023-02-01T03:58:52;6.87;;;3.90;;
17171;SDS011;8701;50.150;8.756;2023-02-01T04:03:05;6.20;;;4.20;;
17171;SDS011;8701;50.150;8.756;2023-02-01T04:07:08;9.53;;;4.03;;
17171;SDS011;8701;50.150;8.756;2023-02-01T04:11:13;4.57;;;3.00;;
17171;SDS011;8701;50.150;8.756;2023-02-01T04:15:16;6.17;;;3.53;;
17171;SDS011;8701;50.150;8.756;2023-02-01T04:19:19;5.60;;;3.13;;
17171;SDS011;8701;50.150;8.756;2023-02-01T04:23:21;5.23;;;3.47;;
17171;SDS011;8701;50.150;8.756;2023-02-01T04:27:23;4.50;;;2.93;;
17171;SDS011;8701;50.150;8.756;2023-02-01T04:31:27;4.97;;;3.30;;
17171;SDS011;8701;50.150;8.756;2023-02-01T04:35:29;3.03;;;2.70;;
17171;SDS011;8701;50.150;8.756;2023-02-01T04:39:32;7.17;;;3.77;;
17171;SDS011;8701;50.150;8.756;2023-02-01T04:43:34;4.83;;;3.43;;
17171;SDS011;8701;50.150;8.756;2023-02-01T04:47:38;5.10;;;3.67;;
17171;SDS011;8701;50.150;8.756;2023-02-01T04:51:42;6.60;;;4.03;;
17171;SDS011;8701;50.150;8.756;2023-02-01T04:55:44;5.67;;;3.67;;
17171;SDS011;8701;50.150;8.756;2023-02-01T04:59:49;5.70;;;4.13;;
17171;SDS011;8701;50.150;8.756;2023-02-01T05:03:53;9.70;;;4.57;;
17171;SDS011;8701;50.150;8.756;2023-02-01T05:07:55;5.17;;;3.43;;
17171;SDS011;8701;50.150;8.756;2023-02-01T05:11:57;5.43;;;3.70;;
17171;SDS011;8701;50.150;8.756;2023-02-01T05:16:17;4.20;;;3.70;;
17171;SDS011;8701;50.150;8.756;2023-02-01T05:20:21;7.00;;;3.53;;
17171;SDS011;8701;50.150;8.756;2023-02-01T05:24:23;7.00;;;4.73;;
17171;SDS011;8701;50.150;8.756;2023-02-01T05:28:27;6.43;;;3.73;;
17171;SDS011;8701;50.150;8.756;2023-02-01T05:32:33;4.43;;;3.60;;
17171;SDS011;8701;50.150;8.756;2023-02-01T05:36:36;6.70;;;3.83;;
17171;SDS011;8701;50.150;8.756;2023-02-01T05:40:39;6.80;;;4.20;;
17171;SDS011;8701;50.150;8.756;2023-02-01T05:44:41;7.27;;;3.73;;
17171;SDS011;8701;50.150;8.756;2023-02-01T05:48:43;4.07;;;2.97;;
17171;SDS011;8701;50.150;8.756;2023-02-01T05:52:47;15.23;;;4.77;;
17171;SDS011;8701;50.150;8.756;2023-02-01T05:56:49;8.60;;;3.63;;
17171;SDS011;8701;50.150;8.756;2023-02-01T06:00:52;7.00;;;4.40;;
17171;SDS011;8701;50.150;8.756;2023-02-01T06:04:54;5.20;;;3.27;;
17171;SDS011;8701;50.150;8.756;2023-02-01T06:13:07;6.13;;;3.30;;
17171;SDS011;8701;50.150;8.756;2023-02-01T06:17:09;10.90;;;3.60;;
17171;SDS011;8701;50.150;8.756;2023-02-01T06:21:11;8.03;;;3.27;;
17171;SDS011;8701;50.150;8.756;2023-02-01T06:25:17;8.83;;;3.70;;
17171;SDS011;8701;50.150;8.756;2023-02-01T06:29:21;9.67;;;3.80;;
17171;SDS011;8701;50.150;8.756;2023-02-01T06:33:23;4.93;;;2.40;;
17171;SDS011;8701;50.150;8.756;2023-02-01T06:37:26;6.53;;;3.30;;
17171;SDS011;8701;50.150;8.756;2023-02-01T06:41:31;6.43;;;3.00;;
17171;SDS011;8701;50.150;8.756;2023-02-01T06:45:35;17.50;;;3.80;;
17171;SDS011;8701;50.150;8.756;2023-02-01T06:49:37;9.10;;;2.93;;
17171;SDS011;8701;50.150;8.756;2023-02-01T06:53:40;5.63;;;2.97;;
17171;SDS011;8701;50.150;8.756;2023-02-01T06:57:45;9.27;;;3.00;;
17171;SDS011;8701;50.150;8.756;2023-02-01T07:01:47;7.50;;;3.30;;
17171;SDS011;8701;50.150;8.756;2023-02-01T07:05:50;10.40;;;3.10;;
17171;SDS011;8701;50.150;8.756;2023-02-01T07:10:01;9.73;;;3.23;;
17171;SDS011;8701;50.150;8.756;2023-02-01T07:14:04;10.40;;;3.30;;
17171;SDS011;8701;50.150;8.756;2023-02-01T07:18:07;8.13;;;3.53;;
17171;SDS011;8701;50.150;8.756;2023-02-01T07:22:09;9.10;;;3.60;;
17171;SDS011;8701;50.150;8.756;2023-02-01T07:26:12;10.30;;;3.40;;
17171;SDS011;8701;50.150;8.756;2023-02-01T07:30:17;6.03;;;3.23;;
17171;SDS011;8701;50.150;8.756;2023-02-01T07:34:19;6.33;;;3.00;;
17171;SDS011;8701;50.150;8.756;2023-02-01T07:38:22;7.53;;;3.50;;
17171;SDS011;8701;50.150;8.756;2023-02-01T07:42:25;8.30;;;2.77;;
17171;SDS011;8701;50.150;8.756;2023-02-01T07:46:29;8.07;;;2.70;;
17171;SDS011;8701;50.150;8.756;2023-02-01T07:50:31;15.30;;;3.27;;
17171;SDS011;8701;50.150;8.756;2023-02-01T07:54:34;12.53;;;3.33;;
17171;SDS011;8701;50.150;8.756;2023-02-01T07:58:46;9.03;;;2.90;;
17171;SDS011;8701;50.150;8.756;2023-02-01T08:02:51;7.33;;;2.70;;
17171;SDS011;8701;50.150;8.756;2023-02-01T08:06:53;7.90;;;2.20;;
17171;SDS011;8701;50.150;8.756;2023-02-01T08:10:59;8.73;;;2.60;;
17171;SDS011;8701;50.150;8.756;2023-02-01T08:15:03;9.23;;;3.13;;
17171;SDS011;8701;50.150;8.756;2023-02-01T08:19:08;12.27;;;2.50;;
17171;SDS011;8701;50.150;8.756;2023-02-01T08:23:17;11.57;;;3.17;;
17171;SDS011;8701;50.150;8.756;2023-02-01T08:27:20;6.83;;;2.40;;
17171;SDS011;8701;50.150;8.756;2023-02-01T08:31:23;9.63;;;2.60;;
17171;SDS011;8701;50.150;8.756;2023-02-01T08:35:28;8.97;;;2.33;;
17171;SDS011;8701;50.150;8.756;2023-02-01T08:39:30;7.50;;;2.40;;
17171;SDS011;8701;50.150;8.756;2023-02-01T08:43:32;6.30;;;2.33;;
17171;SDS011;8701;50.150;8.756;2023-02-01T08:47:39;10.97;;;2.63;;
17171;SDS011;8701;50.150;8.756;2023-02-01T08:51:43;7.30;;;2.57;;
17171;SDS011;8701;50.150;8.756;2023-02-01T08:55:45;11.80;;;2.90;;
17171;SDS011;8701;50.150;8.756;2023-02-01T08:59:48;9.03;;;2.50;;
17171;SDS011;8701;50.150;8.756;2023-02-01T09:03:54;9.20;;;2.57;;
17171;SDS011;8701;50.150;8.756;2023-02-01T09:07:58;14.80;;;2.77;;
17171;SDS011;8701;50.150;8.756;2023-02-01T09:12:00;12.57;;;2.73;;
17171;SDS011;8701;50.150;8.756;2023-02-01T09:16:03;8.30;;;2.83;;
17171;SDS011;8701;50.150;8.756;2023-02-01T09:24:33;6.73;;;2.00;;
17171;SDS011;8701;50.150;8.756;2023-02-01T09:28:36;10.90;;;2.50;;
17171;SDS011;8701;50.150;8.756;2023-02-01T09:32:38;9.20;;;2.30;;
17171;SDS011;8701;50.150;8.756;2023-02-01T09:36:40;4.90;;;2.40;;
17171;SDS011;8701;50.150;8.756;2023-02-01T09:40:45;9.13;;;2.43;;
17171;SDS011;8701;50.150;8.756;2023-02-01T09:44:52;5.13;;;2.47;;
17171;SDS011;8701;50.150;8.756;2023-02-01T09:49:03;5.87;;;2.20;;
17171;SDS011;8701;50.150;8.756;2023-02-01T09:53:12;5.33;;;1.80;;
17171;SDS011;8701;50.150;8.756;2023-02-01T09:57:22;8.60;;;2.30;;
17171;SDS011;8701;50.150;8.756;2023-02-01T10:01:27;10.77;;;3.40;;
17171;SDS011;8701;50.150;8.756;2023-02-01T10:05:37;8.27;;;2.43;;
17171;SDS011;8701;50.150;8.756;2023-02-01T10:09:50;8.57;;;2.70;;
17171;SDS011;8701;50.150;8.756;2023-02-01T10:14:01;18.13;;;2.57;;
17171;SDS011;8701;50.150;8.756;2023-02-01T10:18:20;11.67;;;2.93;;
17171;SDS011;8701;50.150;8.756;2023-02-01T10:22:37;5.80;;;2.37;;
17171;SDS011;8701;50.150;8.756;2023-02-01T10:26:44;10.23;;;2.27;;
17171;SDS011;8701;50.150;8.756;2023-02-01T10:30:48;9.37;;;2.50;;
17171;SDS011;8701;50.150;8.756;2023-02-01T10:34:53;10.30;;;2.13;;
17171;SDS011;8701;50.150;8.756;2023-02-01T10:38:59;10.57;;;2.50;;
17171;SDS011;8701;50.150;8.756;2023-02-01T10:43:02;12.17;;;2.60;;
17171;SDS011;8701;50.150;8.756;2023-02-01T10:47:08;12.30;;;2.50;;
17171;SDS011;8701;50.150;8.756;2023-02-01T10:51:12;14.10;;;3.30;;
17171;SDS011;8701;50.150;8.756;2023-02-01T10:55:35;9.57;;;2.00;;
17171;SDS011;8701;50.150;8.756;2023-02-01T10:59:40;9.20;;;2.40;;
17171;SDS011;8701;50.150;8.756;2023-02-01T11:03:45;10.00;;;2.37;;
17171;SDS011;8701;50.150;8.756;2023-02-01T11:07:54;11.73;;;2.20;;
17171;SDS011;8701;50.150;8.756;2023-02-01T11:12:00;8.10;;;2.00;;
17171;SDS011;8701;50.150;8.756;2023-02-01T11:16:02;8.87;;;2.20;;
17171;SDS011;8701;50.150;8.756;2023-02-01T11:20:12;11.63;;;2.77;;
17171;SDS011;8701;50.150;8.756;2023-02-01T11:24:19;12.83;;;2.57;;
17171;SDS011;8701;50.150;8.756;2023-02-01T11:28:25;9.00;;;2.37;;
17171;SDS011;8701;50.150;8.756;2023-02-01T11:32:29;6.13;;;1.83;;
17171;SDS011;8701;50.150;8.756;2023-02-01T11:36:33;13.60;;;2.40;;
17171;SDS011;8701;50.150;8.756;2023-02-01T11:40:38;14.53;;;2.50;;
17171;SDS011;8701;50.150;8.756;2023-02-01T11:44:41;8.60;;;2.37;;
17171;SDS011;8701;50.150;8.756;2023-02-01T11:48:44;8.87;;;2.00;;
17171;SDS011;8701;50.150;8.756;2023-02-01T11:52:57;12.50;;;2.67;;
17171;SDS011;8701;50.150;8.756;2023-02-01T11:57:15;9.23;;;1.90;;
17171;SDS011;8701;50.150;8.756;2023-02-01T12:01:41;7.13;;;2.10;;
17171;SDS011;8701;50.150;8.756;2023-02-01T12:05:56;7.60;;;2.40;;
17171;SDS011;8701;50.150;8.756;2023-02-01T12:10:04;10.00;;;2.30;;
17171;SDS011;8701;50.150;8.756;2023-02-01T12:14:32;12.63;;;2.53;;
17171;SDS011;8701;50.150;8.756;2023-02-01T12:18:49;6.83;;;2.30;;
17171;SDS011;8701;50.150;8.756;2023-02-01T12:23:15;11.70;;;3.47;;
17171;SDS011;8701;50.150;8.756;2023-02-01T12:27:36;8.33;;;2.43;;
17171;SDS011;8701;50.150;8.756;2023-02-01T12:32:06;8.93;;;2.20;;
17171;SDS011;8701;50.150;8.756;2023-02-01T12:36:19;8.50;;;2.67;;
17171;SDS011;8701;50.150;8.756;2023-02-01T12:40:35;13.03;;;2.80;;
17171;SDS011;8701;50.150;8.756;2023-02-01T12:44:47;9.37;;;2.47;;
17171;SDS011;8701;50.150;8.756;2023-02-01T12:48:58;11.23;;;2.83;;
17171;SDS011;8701;50.150;8.756;2023-02-01T12:53:06;7.80;;;2.30;;
17171;SDS011;8701;50.150;8.756;2023-02-01T12:57:15;12.83;;;2.50;;
17171;SDS011;8701;50.150;8.756;2023-02-01T13:01:22;11.57;;;2.33;;
17171;SDS011;8701;50.150;8.756;2023-02-01T13:05:31;9.67;;;2.50;;
17171;SDS011;8701;50.150;8.756;2023-02-01T13:09:49;12.20;;;2.07;;
17171;SDS011;8701;50.150;8.756;2023-02-01T13:13:56;6.43;;;2.10;;
17171;SDS011;8701;50.150;8.756;2023-02-01T13:18:13;12.23;;;2.10;;
17171;SDS011;8701;50.150;8.756;2023-02-01T13:22:19;13.90;;;2.87;;
17171;SDS011;8701;50.150;8.756;2023-02-01T13:26:27;10.63;;;2.57;;
17171;SDS011;8701;50.150;8.756;2023-02-01T13:35:57;8.87;;;2.70;;
17171;SDS011;8701;50.150;8.756;2023-02-01T13:40:19;3.03;;;2.00;;
17171;SDS011;8701;50.150;8.756;2023-02-01T13:44:37;21.10;;;4.10;;
17171;SDS011;8701;50.150;8.756;2023-02-01T13:48:45;9.57;;;2.60;;
17171;SDS011;8701;50.150;8.756;2023-02-01T13:52:53;12.47;;;2.40;;
17171;SDS011;8701;50.150;8.756;2023-02-01T13:56:57;9.73;;;2.50;;
17171;SDS011;8701;50.150;8.756;2023-02-01T14:05:57;9.57;;;3.20;;
17171;SDS011;8701;50.150;8.756;2023-02-01T14:14:41;7.37;;;2.20;;
17171;SDS011;8701;50.150;8.756;2023-02-01T14:18:59;19.93;;;3.03;;
17171;SDS011;8701;50.150;8.756;2023-02-01T14:23:02;11.97;;;2.60;;
17171;SDS011;8701;50.150;8.756;2023-02-01T14:27:13;13.63;;;2.77;;
17171;SDS011;8701;50.150;8.756;2023-02-01T14:31:41;5.10;;;1.77;;
17171;SDS011;8701;50.150;8.756;2023-02-01T14:35:58;9.93;;;1.90;;
17171;SDS011;8701;50.150;8.756;2023-02-01T14:40:14;4.70;;;1.87;;
17171;SDS011;8701;50.150;8.756;2023-02-01T14:44:28;8.77;;;1.70;;
17171;SDS011;8701;50.150;8.756;2023-02-01T14:48:45;10.53;;;1.93;;
17171;SDS011;8701;50.150;8.756;2023-02-01T14:52:50;6.90;;;2.50;;
17171;SDS011;8701;50.150;8.756;2023-02-01T14:57:01;11.37;;;2.10;;
17171;SDS011;8701;50.150;8.756;2023-02-01T15:01:06;11.53;;;2.73;;
17171;SDS011;8701;50.150;8.756;2023-02-01T15:05:33;9.17;;;2.37;;
17171;SDS011;8701;50.150;8.756;2023-02-01T15:09:36;16.20;;;2.37;;
17171;SDS011;8701;50.150;8.756;2023-02-01T15:13:40;7.47;;;2.07;;
17171;SDS011;8701;50.150;8.756;2023-02-01T15:17:51;5.30;;;1.80;;
17171;SDS011;8701;50.150;8.756;2023-02-01T15:26:06;15.00;;;3.37;;
17171;SDS011;8701;50.150;8.756;2023-02-01T15:30:15;5.70;;;2.20;;
17171;SDS011;8701;50.150;8.756;2023-02-01T15:34:43;6.90;;;2.60;;
17171;SDS011;8701;50.150;8.756;2023-02-01T15:38:48;10.50;;;1.87;;
17171;SDS011;8701;50.150;8.756;2023-02-01T15:43:14;9.10;;;2.70;;
17171;SDS011;8701;50.150;8.756;2023-02-01T15:47:17;6.10;;;1.33;;
17171;SDS011;8701;50.150;8.756;2023-02-01T15:51:28;6.97;;;1.60;;
17171;SDS011;8701;50.150;8.756;2023-02-01T15:55:33;6.53;;;1.73;;
17171;SDS011;8701;50.150;8.756;2023-02-01T15:59:42;8.03;;;1.87;;
17171;SDS011;8701;50.150;8.756;2023-02-01T16:03:46;7.73;;;2.00;;
17171;SDS011;8701;50.150;8.756;2023-02-01T16:07:54;5.57;;;1.60;;
17171;SDS011;8701;50.150;8.756;2023-02-01T16:12:20;6.67;;;1.37;;
17171;SDS011;8701;50.150;8.756;2023-02-01T16:16:32;6.63;;;1.97;;
17171;SDS011;8701;50.150;8.756;2023-02-01T16:20:34;4.57;;;1.80;;
17171;SDS011;8701;50.150;8.756;2023-02-01T16:24:37;4.50;;;1.63;;
17171;SDS011;8701;50.150;8.756;2023-02-01T16:28:39;10.10;;;2.20;;
17171;SDS011;8701;50.150;8.756;2023-02-01T16:32:48;2.87;;;1.50;;
17171;SDS011;8701;50.150;8.756;2023-02-01T16:36:53;5.17;;;1.67;;
17171;SDS011;8701;50.150;8.756;2023-02-01T16:40:57;11.87;;;2.03;;
17171;SDS011;8701;50.150;8.756;2023-02-01T16:45:00;7.60;;;2.03;;
17171;SDS011;8701;50.150;8.756;2023-02-01T16:49:18;4.40;;;1.73;;
17171;SDS011;8701;50.150;8.756;2023-02-01T16:53:22;6.33;;;2.00;;
17171;SDS011;8701;50.150;8.756;2023-02-01T16:57:29;7.10;;;1.97;;
17171;SDS011;8701;50.150;8.756;2023-02-01T17:01:31;3.97;;;1.47;;
17171;SDS011;8701;50.150;8.756;2023-02-01T17:05:35;7.00;;;2.87;;
17171;SDS011;8701;50.150;8.756;2023-02-01T17:09:37;6.53;;;2.40;;
17171;SDS011;8701;50.150;8.756;2023-02-01T17:13:41;6.80;;;1.90;;
17171;SDS011;8701;50.150;8.756;2023-02-01T17:17:45;15.37;;;2.20;;
17171;SDS011;8701;50.150;8.756;2023-02-01T17:21:50;8.37;;;1.70;;
17171;SDS011;8701;50.150;8.756;2023-02-01T17:25:56;6.90;;;1.70;;
17171;SDS011;8701;50.150;8.756;2023-02-01T17:29:58;7.63;;;1.93;;
17171;SDS011;8701;50.150;8.756;2023-02-01T17:34:03;6.43;;;1.80;;
17171;SDS011;8701;50.150;8.756;2023-02-01T17:38:10;6.60;;;2.43;;
17171;SDS011;8701;50.150;8.756;2023-02-01T17:42:13;14.63;;;2.50;;
17171;SDS011;8701;50.150;8.756;2023-02-01T17:46:16;11.63;;;2.57;;
17171;SDS011;8701;50.150;8.756;2023-02-01T17:50:29;11.10;;;4.60;;
17171;SDS011;8701;50.150;8.756;2023-02-01T17:54:33;9.47;;;3.07;;
17171;SDS011;8701;50.150;8.756;2023-02-01T17:58:36;12.30;;;5.00;;
17171;SDS011;8701;50.150;8.756;2023-02-01T18:02:39;9.37;;;2.73;;
17171;SDS011;8701;50.150;8.756;2023-02-01T18:06:42;7.20;;;2.13;;
17171;SDS011;8701;50.150;8.756;2023-02-01T18:10:46;9.23;;;3.30;;
17171;SDS011;8701;50.150;8.756;2023-02-01T18:14:52;18.13;;;5.20;;
17171;SDS011;8701;50.150;8.756;2023-02-01T18:18:58;10.60;;;4.03;;
17171;SDS011;8701;50.150;8.756;2023-02-01T18:23:07;11.37;;;4.50;;
17171;SDS011;8701;50.150;8.756;2023-02-01T18:27:20;11.20;;;4.10;;
17171;SDS011;8701;50.150;8.756;2023-02-01T18:31:24;13.07;;;3.20;;
17171;SDS011;8701;50.150;8.756;2023-02-01T18:35:36;18.53;;;4.20;;
17171;SDS011;8701;50.150;8.756;2023-02-01T18:39:50;18.70;;;5.17;;
17171;SDS011;8701;50.150;8.756;2023-02-01T18:59:55;17.03;;;5.60;;
17171;SDS011;8701;50.150;8.756;2023-02-01T19:04:01;11.13;;;4.07;;
17171;SDS011;8701;50.150;8.756;2023-02-01T19:08:07;31.80;;;12.07;;
17171;SDS011;8701;50.150;8.756;2023-02-01T19:12:16;8.13;;;2.50;;
17171;SDS011;8701;50.150;8.756;2023-02-01T19:16:20;4.83;;;2.00;;
17171;SDS011;8701;50.150;8.756;2023-02-01T19:20:23;7.77;;;2.50;;
17171;SDS011;8701;50.150;8.756;2023-02-01T19:24:32;8.43;;;2.43;;
17171;SDS011;8701;50.150;8.756;2023-02-01T19:28:42;7.53;;;2.40;;
17171;SDS011;8701;50.150;8.756;2023-02-01T19:32:49;7.83;;;2.33;;
17171;SDS011;8701;50.150;8.756;2023-02-01T19:36:54;10.60;;;3.23;;
17171;SDS011;8701;50.150;8.756;2023-02-01T19:40:56;7.30;;;2.70;;
17171;SDS011;8701;50.150;8.756;2023-02-01T19:44:59;6.83;;;2.23;;
17171;SDS011;8701;50.150;8.756;2023-02-01T19:49:03;8.30;;;2.03;;
17171;SDS011;8701;50.150;8.756;2023-02-01T19:53:10;6.97;;;2.20;;
17171;SDS011;8701;50.150;8.756;2023-02-01T19:57:13;4.77;;;2.10;;
17171;SDS011;8701;50.150;8.756;2023-02-01T20:01:15;10.40;;;2.50;;
17171;SDS011;8701;50.150;8.756;2023-02-01T20:05:20;12.97;;;2.53;;
17171;SDS011;8701;50.150;8.756;2023-02-01T20:09:28;8.73;;;2.00;;
17171;SDS011;8701;50.150;8.756;2023-02-01T20:13:36;7.30;;;3.03;;
17171;SDS011;8701;50.150;8.756;2023-02-01T20:17:44;6.57;;;2.63;;
17171;SDS011;8701;50.150;8.756;2023-02-01T20:21:52;7.83;;;3.30;;
17171;SDS011;8701;50.150;8.756;2023-02-01T20:25:59;10.10;;;3.30;;
17171;SDS011;8701;50.150;8.756;2023-02-01T20:30:03;14.60;;;2.60;;
17171;SDS011;8701;50.150;8.756;2023-02-01T20:34:13;7.03;;;2.57;;
17171;SDS011;8701;50.150;8.756;2023-02-01T20:38:16;8.20;;;2.67;;
17171;SDS011;8701;50.150;8.756;2023-02-01T20:42:19;7.03;;;2.40;;
17171;SDS011;8701;50.150;8.756;2023-02-01T20:46:21;12.47;;;2.40;;
17171;SDS011;8701;50.150;8.756;2023-02-01T20:50:23;6.73;;;2.10;;
17171;SDS011;8701;50.150;8.756;2023-02-01T20:54:27;8.77;;;2.10;;
17171;SDS011;8701;50.150;8.756;2023-02-01T20:58:30;8.40;;;2.43;;
17171;SDS011;8701;50.150;8.756;2023-02-01T21:06:43;9.57;;;3.03;;
17171;SDS011;8701;50.150;8.756;2023-02-01T21:10:55;6.40;;;2.87;;
17171;SDS011;8701;50.150;8.756;2023-02-01T21:15:01;9.90;;;3.40;;
17171;SDS011;8701;50.150;8.756;2023-02-01T21:19:05;12.27;;;5.10;;
17171;SDS011;8701;50.150;8.756;2023-02-01T21:23:09;4.40;;;2.30;;
17171;SDS011;8701;50.150;8.756;2023-02-01T21:27:13;9.20;;;2.83;;
17171;SDS011;8701;50.150;8.756;2023-02-01T21:31:16;15.17;;;4.77;;
17171;SDS011;8701;50.150;8.756;2023-02-01T21:35:21;9.13;;;3.70;;
17171;SDS011;8701;50.150;8.756;2023-02-01T21:39:24;8.50;;;3.97;;
17171;SDS011;8701;50.150;8.756;2023-02-01T21:43:29;6.50;;;2.27;;
17171;SDS011;8701;50.150;8.756;2023-02-01T21:47:32;12.97;;;4.27;;
17171;SDS011;8701;50.150;8.756;2023-02-01T21:51:34;7.40;;;2.50;;
17171;SDS011;8701;50.150;8.756;2023-02-01T21:55:37;9.03;;;2.43;;
17171;SDS011;8701;50.150;8.756;2023-02-01T21:59:51;5.90;;;1.90;;
17171;SDS011;8701;50.150;8.756;2023-02-01T22:03:53;5.50;;;2.27;;
17171;SDS011;8701;50.150;8.756;2023-02-01T22:07:56;11.50;;;3.63;;
17171;SDS011;8701;50.150;8.756;2023-02-01T22:12:15;14.87;;;3.03;;
17171;SDS011;8701;50.150;8.756;2023-02-01T22:16:20;5.33;;;2.90;;
17171;SDS011;8701;50.150;8.756;2023-02-01T22:20:27;8.93;;;3.47;;
17171;SDS011;8701;50.150;8.756;2023-02-01T22:24:41;7.57;;;3.07;;
17171;SDS011;8701;50.150;8.756;2023-02-01T22:28:47;12.67;;;2.60;;
17171;SDS011;8701;50.150;8.756;2023-02-01T22:32:53;3.80;;;1.90;;
17171;SDS011;8701;50.150;8.756;2023-02-01T22:37:08;7.63;;;1.90;;
17171;SDS011;8701;50.150;8.756;2023-02-01T22:41:11;5.03;;;1.77;;
17171;SDS011;8701;50.150;8.756;2023-02-01T22:45:29;6.67;;;1.70;;
17171;SDS011;8701;50.150;8.756;2023-02-01T22:49:49;3.57;;;1.73;;
17171;SDS011;8701;50.150;8.756;2023-02-01T22:53:56;5.40;;;1.63;;
17171;SDS011;8701;50.150;8.756;2023-02-01T22:57:58;5.73;;;2.20;;
17171;SDS011;8701;50.150;8.756;2023-02-01T23:02:02;8.30;;;1.80;;
17171;SDS011;8701;50.150;8.756;2023-02-01T23:06:06;4.47;;;1.90;;
17171;SDS011;8701;50.150;8.756;2023-02-01T23:10:09;2.87;;;1.60;;
17171;SDS011;8701;50.150;8.756;2023-02-01T23:14:14;4.10;;;1.70;;
17171;SDS011;8701;50.150;8.756;2023-02-01T23:18:18;6.60;;;1.80;;
17171;SDS011;8701;50.150;8.756;2023-02-01T23:22:31;5.77;;;1.60;;
17171;SDS011;8701;50.150;8.756;2023-02-01T23:26:47;2.27;;;1.70;;
17171;SDS011;8701;50.150;8.756;2023-02-01T23:30:49;6.93;;;2.20;;
17171;SDS011;8701;50.150;8.756;2023-02-01T23:34:52;5.83;;;1.87;;
17171;SDS011;8701;50.150;8.756;2023-02-01T23:38:55;8.30;;;1.87;;
17171;SDS011;8701;50.150;8.756;2023-02-01T23:42:58;5.40;;;1.70;;
17171;SDS011;8701;50.150;8.756;2023-02-01T23:47:17;6.73;;;1.70;;
17171;SDS011;8701;50.150;8.756;2023-02-01T23:51:20;6.03;;;1.60;;
17171;SDS011;8701;50.150;8.756;2023-02-01T23:55:24;6.37;;;1.90;;
17171;SDS011;8701;50.150;8.756;2023-02-01T23:59:28;3.80;;;1.60;;
